METAR Data
IDs: Format: Raw Decoded Include TAF

Data at: 0315 UTC 25 Feb 2021

LJLJ 250300Z 27002KT CAVOK 00/M01 Q1034 NOSIG